^^
Meteo Knjazevac Station Historical Data
Daily Summary for January 3, 2021 Units:  English    Metric   Both
Daily Weekly Monthly Yearly Custom
  High: Low: Average:
Temperature: 71.8 °F 34 °F 51.8 °F
Dew Point: 51.7 °F 31.4 °F 42.6 °F
Humidity: 96% 49% 73%
Wind Speed: 6mph 0mph 1.9mph
Wind Gust: 12mph - -
Wind- - SSW
Pressure: 30.31 in 30.21 in -
Precipitation: 0.00 in    
Historical Graphs
 
 
Tabular Data for January 3, 2021
Time Temperature Dew Point Pressure Wind Wind Speed Wind Gust Humidity Rainfall Rate (Hourly) solar Conditions
00:00 43.7 °F 39.2 °F 30.28 in SSE 1 mph 3 mph 84% 0.00 in 0 W/m2
00:10 43.5 °F 39 °F 30.28 in West 1 mph 2 mph 84% 0.00 in 0 W/m2
00:20 43.3 °F 38.8 °F 30.28 in WNW 1 mph 4 mph 84% 0.00 in 0 W/m2
00:30 43 °F 38.5 °F 30.28 in Calm   2 mph 84% 0.00 in 0 W/m2
00:40 42.8 °F 38.3 °F 30.28 in Calm   2 mph 84% 0.00 in 0 W/m2
00:50 42.4 °F 37.9 °F 30.28 in Calm   2 mph 84% 0.00 in 0 W/m2
01:00 42.1 °F 37.6 °F 30.28 in NW 1 mph 3 mph 84% 0.00 in 0 W/m2
01:10 41.7 °F 37.5 °F 30.28 in West 1 mph 4 mph 85% 0.00 in 0 W/m2
01:20 41.5 °F 37.7 °F 30.28 in Calm   2 mph 86% 0.00 in 0 W/m2
01:30 41 °F 36.5 °F 30.28 in Calm   1 mph 84% 0.00 in 0 W/m2
01:40 40.5 °F 36 °F 30.28 in Calm   2 mph 84% 0.00 in 0 W/m2
01:50 40.1 °F 36.2 °F 30.28 in NW 2 mph 4 mph 86% 0.00 in 0 W/m2
02:00 39.9 °F 36.1 °F 30.28 in NW 1 mph 3 mph 86% 0.00 in 0 W/m2
02:10 39.7 °F 35.9 °F 30.28 in Calm   2 mph 86% 0.00 in 0 W/m2
02:20 39.6 °F 35.7 °F 30.28 in West 1 mph 2 mph 86% 0.00 in 0 W/m2
02:30 39 °F 35.2 °F 30.29 in Calm   2 mph 86% 0.00 in 0 W/m2
02:40 38.8 °F 35.6 °F 30.28 in Calm   2 mph 88% 0.00 in 0 W/m2
02:50 38.8 °F 35.9 °F 30.28 in North 1 mph 3 mph 89% 0.00 in 0 W/m2
03:00 38.8 °F 35.9 °F 30.28 in Calm   2 mph 89% 0.00 in 0 W/m2
03:10 38.7 °F 35.4 °F 30.29 in Calm   2 mph 88% 0.00 in 0 W/m2
03:20 38.5 °F 35.5 °F 30.28 in Calm   3 mph 89% 0.00 in 0 W/m2
03:30 38.3 °F 35.1 °F 30.29 in Calm   2 mph 88% 0.00 in 0 W/m2
03:40 37.8 °F 34.5 °F 30.28 in Calm   1 mph 88% 0.00 in 0 W/m2
03:50 37.4 °F 34.2 °F 30.28 in Calm     88% 0.00 in 0 W/m2
04:00 37.2 °F 34 °F 30.28 in NE 1 mph 2 mph 88% 0.00 in 0 W/m2
04:10 36.9 °F 33.9 °F 30.28 in Calm   2 mph 89% 0.00 in 0 W/m2
04:20 36.9 °F 33.9 °F 30.28 in Calm   1 mph 89% 0.00 in 0 W/m2
04:30 36.7 °F 33.7 °F 30.28 in Calm   2 mph 89% 0.00 in 0 W/m2
04:40 36.3 °F 33.4 °F 30.28 in Calm   2 mph 89% 0.00 in 0 W/m2
04:50 36.1 °F 32.9 °F 30.28 in NW 2 mph 3 mph 88% 0.00 in 0 W/m2
05:00 35.8 °F 32.9 °F 30.28 in Calm   3 mph 89% 0.00 in 0 W/m2
05:10 35.8 °F 32.9 °F 30.28 in Calm   2 mph 89% 0.00 in 0 W/m2
05:20 35.4 °F 32.5 °F 30.28 in Calm   3 mph 89% 0.00 in 0 W/m2
05:30 35.2 °F 32.3 °F 30.29 in WNW 1 mph 3 mph 89% 0.00 in 0 W/m2
05:40 35.1 °F 32.4 °F 30.28 in Calm   2 mph 90% 0.00 in 0 W/m2
05:50 35.1 °F 32.4 °F 30.29 in NNW 1 mph 2 mph 90% 0.00 in 0 W/m2
06:00 34.7 °F 32.1 °F 30.29 in Calm   2 mph 90% 0.00 in 0 W/m2
06:10 34.5 °F 31.9 °F 30.29 in NW 1 mph 2 mph 90% 0.00 in 0 W/m2
06:20 34.3 °F 31.7 °F 30.29 in NW 1 mph 2 mph 90% 0.00 in 0 W/m2
06:30 34.5 °F 32.7 °F 30.30 in Calm   3 mph 93% 0.00 in 4 W/m2
06:40 34.7 °F 32.9 °F 30.30 in Calm   2 mph 93% 0.00 in 10 W/m2
06:50 34.5 °F 31.9 °F 30.30 in Calm   2 mph 90% 0.00 in 19 W/m2
07:00 34.2 °F 31.5 °F 30.30 in Calm   2 mph 90% 0.00 in 29 W/m2
07:10 34 °F 31.4 °F 30.30 in NW 1 mph 2 mph 90% 0.00 in 37 W/m2
07:20 34 °F 31.6 °F 30.30 in WNW 2 mph 4 mph 91% 0.00 in 80 W/m2
07:30 34 °F 31.6 °F 30.31 in Calm   2 mph 91% 0.00 in 103 W/m2
07:40 34.2 °F 32.3 °F 30.31 in WNW 1 mph 2 mph 93% 0.00 in 132 W/m2
07:50 34.5 °F 33 °F 30.30 in Calm   2 mph 94% 0.00 in 157 W/m2
08:00 35.2 °F 34 °F 30.31 in Calm   2 mph 95% 0.00 in 187 W/m2
08:10 35.8 °F 34.5 °F 30.31 in Calm   2 mph 95% 0.00 in 79 W/m2
08:20 36.7 °F 35.7 °F 30.31 in Calm   2 mph 96% 0.00 in 179 W/m2
08:30 38.5 °F 37.5 °F 30.31 in WSW 1 mph 3 mph 96% 0.00 in 275 W/m2
08:40 40.5 °F 38.9 °F 30.31 in SW 1 mph 2 mph 94% 0.00 in 309 W/m2
08:50 42.3 °F 40.4 °F 30.31 in WSW 1 mph 2 mph 93% 0.00 in 328 W/m2
09:00 44.1 °F 41.4 °F 30.31 in South 2 mph 3 mph 90% 0.00 in 368 W/m2
09:10 45.5 °F 41.6 °F 30.31 in ENE 3 mph 10 mph 86% 0.00 in 400 W/m2
09:20 47 °F 42.7 °F 30.31 in NE 3 mph 10 mph 85% 0.00 in 425 W/m2
09:30 48.4 °F 43.5 °F 30.31 in NNE 2 mph 9 mph 83% 0.00 in 450 W/m2
09:40 49.5 °F 43.9 °F 30.31 in NE 5 mph 8 mph 81% 0.00 in 473 W/m2
09:50 50.5 °F 44.3 °F 30.31 in NNE 3 mph 8 mph 79% 0.00 in 485 W/m2
10:00 51.6 °F 45 °F 30.31 in NNW 1 mph 5 mph 78% 0.00 in 99 W/m2
10:10 52.5 °F 45.5 °F 30.31 in NE 3 mph 7 mph 77% 0.00 in 536 W/m2
10:20 53.4 °F 45.7 °F 30.31 in NNE 1 mph 7 mph 75% 0.00 in 555 W/m2
10:30 54.7 °F 46.2 °F 30.30 in NNE 2 mph 7 mph 73% 0.00 in 572 W/m2
10:40 55.8 °F 46.9 °F 30.30 in North 2 mph 6 mph 72% 0.00 in 588 W/m2
10:50 56.8 °F 46.8 °F 30.30 in NNE 1 mph 6 mph 69% 0.00 in 603 W/m2
11:00 57.9 °F 47.4 °F 30.30 in NE 5 mph 6 mph 68% 0.00 in 616 W/m2
11:10 58.8 °F 47.9 °F 30.30 in NE 1 mph 8 mph 67% 0.00 in 628 W/m2
11:20 59.9 °F 48.1 °F 30.29 in NNE 3 mph 8 mph 65% 0.00 in 638 W/m2
11:30 61.2 °F 48.9 °F 30.28 in NNE 3 mph 8 mph 64% 0.00 in 646 W/m2
11:40 61.9 °F 49.2 °F 30.28 in NE 3 mph 8 mph 63% 0.00 in 316 W/m2
11:50 63 °F 49.8 °F 30.28 in NE 5 mph 10 mph 62% 0.00 in 176 W/m2
12:00 63.9 °F 49.7 °F 30.27 in NE 3 mph 8 mph 60% 0.00 in 619 W/m2
12:10 64.8 °F 49.6 °F 30.27 in NE 3 mph 11 mph 58% 0.00 in 664 W/m2
12:20 65.5 °F 50.3 °F 30.26 in North 3 mph 7 mph 58% 0.00 in 665 W/m2
12:30 66.4 °F 51.2 °F 30.26 in NNE 5 mph 8 mph 58% 0.00 in 663 W/m2
12:40 67.3 °F 50.6 °F 30.25 in NE 1 mph 12 mph 55% 0.00 in 661 W/m2
12:50 67.9 °F 51.1 °F 30.25 in NNE 6 mph 10 mph 55% 0.00 in 656 W/m2
13:00 68.7 °F 51.4 °F 30.25 in North 3 mph 8 mph 54% 0.00 in 650 W/m2
13:10 69.3 °F 51.4 °F 30.24 in North 6 mph 10 mph 53% 0.00 in 642 W/m2
13:20 69.6 °F 51.2 °F 30.24 in North 2 mph 9 mph 52% 0.00 in 633 W/m2
13:30 70.2 °F 51.7 °F 30.24 in NNE 6 mph 12 mph 52% 0.00 in 614 W/m2
13:40 70.5 °F 51 °F 30.23 in North 6 mph 11 mph 50% 0.00 in 610 W/m2
13:50 70.7 °F 51.1 °F 30.23 in NNE 5 mph 10 mph 50% 0.00 in 597 W/m2
14:00 71.1 °F 51.5 °F 30.22 in North 5 mph 11 mph 50% 0.00 in 581 W/m2
14:10 71.2 °F 51.1 °F 30.22 in North 2 mph 12 mph 49% 0.00 in 565 W/m2
14:20 71.1 °F 50.9 °F 30.22 in North 3 mph 12 mph 49% 0.00 in 547 W/m2
14:30 71.2 °F 51.1 °F 30.22 in North 6 mph 12 mph 49% 0.00 in 527 W/m2
14:40 71.4 °F 51.3 °F 30.22 in North 2 mph 10 mph 49% 0.00 in 507 W/m2
14:50 71.6 °F 51.4 °F 30.22 in North 3 mph 9 mph 49% 0.00 in 485 W/m2
15:00 71.8 °F 51.6 °F 30.21 in North 6 mph 10 mph 49% 0.00 in 462 W/m2
15:10 71.8 °F 51.6 °F 30.22 in NNE 2 mph 11 mph 49% 0.00 in 438 W/m2
15:20 71.8 °F 51.6 °F 30.21 in North 5 mph 11 mph 49% 0.00 in 414 W/m2
15:30 71.6 °F 51.4 °F 30.21 in North 3 mph 11 mph 49% 0.00 in 388 W/m2
15:40 71.4 °F 51.3 °F 30.21 in NNE 5 mph 10 mph 49% 0.00 in 362 W/m2
15:50 71.4 °F 51.3 °F 30.21 in North 6 mph 12 mph 49% 0.00 in 335 W/m2
16:00 71.1 °F 50.9 °F 30.21 in North 6 mph 12 mph 49% 0.00 in 307 W/m2
16:10 70.7 °F 50.6 °F 30.21 in North 5 mph 11 mph 49% 0.00 in 279 W/m2
16:20 70.3 °F 50.3 °F 30.21 in North 5 mph 12 mph 49% 0.00 in 251 W/m2
16:30 70 °F 49.9 °F 30.21 in North 3 mph 12 mph 49% 0.00 in 222 W/m2
16:40 69.6 °F 50.1 °F 30.21 in North 5 mph 9 mph 50% 0.00 in 194 W/m2
16:50 69.1 °F 49.7 °F 30.21 in NNW 5 mph 9 mph 50% 0.00 in 163 W/m2
17:00 68.5 °F 49.2 °F 30.21 in NNW 5 mph 8 mph 50% 0.00 in 132 W/m2
17:10 68.2 °F 49.9 °F 30.21 in North 6 mph 10 mph 52% 0.00 in 105 W/m2
17:20 67.8 °F 49.5 °F 30.21 in North 6 mph 9 mph 52% 0.00 in 80 W/m2
17:30 67.3 °F 49.6 °F 30.21 in North 5 mph 10 mph 53% 0.00 in 57 W/m2
17:40 66.7 °F 49.1 °F 30.21 in North 5 mph 10 mph 53% 0.00 in 37 W/m2
17:50 66.1 °F 49 °F 30.21 in NNW 2 mph 10 mph 54% 0.00 in 20 W/m2
18:00 65.4 °F 48.3 °F 30.22 in NNW 5 mph 9 mph 54% 0.00 in 4 W/m2
18:10 64.6 °F 48 °F 30.22 in NNW 3 mph 8 mph 55% 0.00 in 0 W/m2
18:20 64 °F 48.4 °F 30.22 in NNW 3 mph 8 mph 57% 0.00 in 0 W/m2
18:30 63.3 °F 47.8 °F 30.22 in NNW 3 mph 6 mph 57% 0.00 in 0 W/m2
18:40 62.5 °F 47.6 °F 30.23 in NNW 2 mph 7 mph 58% 0.00 in 0 W/m2
18:50 62.1 °F 47.1 °F 30.23 in North 1 mph 7 mph 58% 0.00 in 0 W/m2
19:00 61.3 °F 46.9 °F 30.23 in SW 1 mph 3 mph 59% 0.00 in 0 W/m2
19:10 60.4 °F 46.4 °F 30.23 in Calm   2 mph 60% 0.00 in 0 W/m2
19:20 59.4 °F 46.8 °F 30.23 in SSE 2 mph 4 mph 63% 0.00 in 0 W/m2
19:30 58.6 °F 46.4 °F 30.23 in South 1 mph 2 mph 64% 0.00 in 0 W/m2
19:40 57.7 °F 46.4 °F 30.23 in WSW 1 mph 2 mph 66% 0.00 in 0 W/m2
19:50 56.8 °F 46 °F 30.24 in WSW 1 mph 2 mph 67% 0.00 in 0 W/m2
20:00 56.1 °F 45.6 °F 30.24 in SW 1 mph 2 mph 68% 0.00 in 0 W/m2
20:10 55.4 °F 45.4 °F 30.24 in SW 1 mph 2 mph 69% 0.00 in 0 W/m2
20:20 54.6 °F 45 °F 30.25 in SW 1 mph 3 mph 70% 0.00 in 0 W/m2
20:30 53.9 °F 45.1 °F 30.25 in WSW 1 mph 2 mph 72% 0.00 in 0 W/m2
20:40 53.4 °F 44.6 °F 30.25 in SW 2 mph 3 mph 72% 0.00 in 0 W/m2
20:50 52.7 °F 44.3 °F 30.25 in SW 2 mph 3 mph 73% 0.00 in 0 W/m2
21:00 52.2 °F 44.1 °F 30.25 in West 1 mph 3 mph 74% 0.00 in 0 W/m2
21:10 51.6 °F 43.6 °F 30.25 in WSW 1 mph 2 mph 74% 0.00 in 0 W/m2
21:20 51.3 °F 43.6 °F 30.25 in WSW 1 mph 2 mph 75% 0.00 in 0 W/m2
21:30 50.7 °F 43.1 °F 30.26 in West 1 mph 2 mph 75% 0.00 in 0 W/m2
21:40 50.4 °F 43.4 °F 30.26 in SSW 1 mph 3 mph 77% 0.00 in 0 W/m2
21:50 49.8 °F 43.2 °F 30.26 in South 1 mph 3 mph 78% 0.00 in 0 W/m2
22:00 49.6 °F 43.3 °F 30.26 in West 1 mph 3 mph 79% 0.00 in 0 W/m2
22:10 49.1 °F 42.9 °F 30.27 in Calm   3 mph 79% 0.00 in 0 W/m2
22:20 48.7 °F 42.8 °F 30.27 in Calm   2 mph 80% 0.00 in 0 W/m2
22:30 48.4 °F 42.5 °F 30.27 in Calm   2 mph 80% 0.00 in 0 W/m2
22:40 48 °F 42.5 °F 30.27 in SW 1 mph 2 mph 81% 0.00 in 0 W/m2
22:50 47.7 °F 42.1 °F 30.27 in West 1 mph 2 mph 81% 0.00 in 0 W/m2
23:00 47.3 °F 42.4 °F 30.27 in NNW 2 mph 3 mph 83% 0.00 in 0 W/m2
23:10 47.4 °F 42.5 °F 30.27 in ENE 3 mph 5 mph 83% 0.00 in 0 W/m2
23:20 46.9 °F 41.4 °F 30.28 in NE 1 mph 4 mph 81% 0.00 in 0 W/m2
23:30 46.6 °F 41.7 °F 30.28 in WNW 1 mph 2 mph 83% 0.00 in 0 W/m2
23:40 46.4 °F 41.8 °F 30.28 in Calm   2 mph 84% 0.00 in 0 W/m2
23:50 46 °F 41.5 °F 30.28 in WSW 1 mph 2 mph 84% 0.00 in 0 W/m2
Knjazevac, Serbia
Compliments of Weather Underground - 2 mb